Time;durP1;ratioP1;P1;durP2;ratioP2;P2;SDS_P1;SDS_P2;PMS_P1;PMS_P2;Temp;Humidity;BMP_temperature;BMP_pressure;BME280_temperature;BME280_humidity;BME280_pressure;Samples;Min_cycle;Max_cycle;Signal;HPM_P1;HPM_P2
2020/12/29 00:01:37;;;;;;;30.47;15.67;;;;;;;;;;4408208;32;20221;-85
2020/12/29 00:04:03;;;;;;;29.83;16.70;;;;;;;;;;4407965;32;20234;-85
2020/12/29 00:06:29;;;;;;;25.03;14.10;;;;;;;;;;4407936;32;20216;-84
2020/12/29 00:08:54;;;;;;;26.13;15.00;;;;;;;;;;4421921;32;20191;-85
2020/12/29 00:11:19;;;;;;;26.00;14.43;;;;;;;;;;4408433;32;20587;-85
2020/12/29 00:13:44;;;;;;;25.63;13.37;;;;;;;;;;4408011;32;20266;-84
2020/12/29 00:16:10;;;;;;;25.50;14.30;;;;;;;;;;4408885;32;20222;-84
2020/12/29 00:18:35;;;;;;;26.70;13.93;;;;;;;;;;4421800;32;20142;-84
2020/12/29 00:21:00;;;;;;;29.77;15.67;;;;;;;;;;4407895;32;20166;-84
2020/12/29 00:23:26;;;;;;;28.60;15.67;;;;;;;;;;4408868;32;20166;-84
2020/12/29 00:25:51;;;;;;;27.40;14.33;;;;;;;;;;4408145;32;20223;-84
2020/12/29 00:28:16;;;;;;;27.70;14.63;;;;;;;;;;4408491;32;20220;-85
2020/12/29 00:30:41;;;;;;;32.97;16.17;;;;;;;;;;4407789;32;20207;-83
2020/12/29 00:33:06;;;;;;;30.13;15.40;;;;;;;;;;4407661;32;20197;-84
2020/12/29 00:35:32;;;;;;;34.47;17.50;;;;;;;;;;4407691;32;20537;-84
2020/12/29 00:37:57;;;;;;;29.20;15.43;;;;;;;;;;4407769;32;20218;-84
2020/12/29 00:40:22;;;;;;;35.40;18.23;;;;;;;;;;4408045;32;20513;-85
2020/12/29 00:42:47;;;;;;;33.93;16.73;;;;;;;;;;4408274;32;20184;-85
2020/12/29 00:45:13;;;;;;;41.13;20.00;;;;;;;;;;4407540;32;20228;-85
2020/12/29 00:47:38;;;;;;;38.10;19.73;;;;;;;;;;4421576;32;20146;-85
2020/12/29 00:50:03;;;;;;;46.13;21.60;;;;;;;;;;4409160;32;20292;-85
2020/12/29 00:52:28;;;;;;;36.40;18.90;;;;;;;;;;4423084;32;20192;-85
2020/12/29 00:54:53;;;;;;;38.27;20.43;;;;;;;;;;4423000;32;20510;-85
2020/12/29 00:57:19;;;;;;;40.40;20.33;;;;;;;;;;4423019;32;20181;-85
2020/12/29 00:59:44;;;;;;;46.63;22.77;;;;;;;;;;4422517;32;20200;-86
2020/12/29 01:02:09;;;;;;;46.53;22.57;;;;;;;;;;4422572;32;20196;-86
2020/12/29 01:04:34;;;;;;;38.33;19.90;;;;;;;;;;4423196;32;20260;-85
2020/12/29 01:07:03;;;;;;;41.17;20.90;;;;;;;;;;4422480;32;20185;-86
2020/12/29 01:09:28;;;;;;;42.57;21.33;;;;;;;;;;4437344;32;20164;-85
2020/12/29 01:11:54;;;;;;;42.60;20.73;;;;;;;;;;4423240;32;20165;-86
2020/12/29 01:14:19;;;;;;;46.33;21.43;;;;;;;;;;4422453;32;20229;-86
2020/12/29 01:16:46;;;;;;;43.23;22.00;;;;;;;;;;4422620;32;20193;-86
2020/12/29 01:19:11;;;;;;;44.40;20.33;;;;;;;;;;4436312;32;20198;-86
2020/12/29 01:21:36;;;;;;;39.10;20.57;;;;;;;;;;4422240;32;20157;-86
2020/12/29 01:24:01;;;;;;;46.33;22.50;;;;;;;;;;4422219;32;20210;-87
2020/12/29 01:26:27;;;;;;;44.17;21.57;;;;;;;;;;4422829;32;20160;-86
2020/12/29 01:28:53;;;;;;;43.87;22.17;;;;;;;;;;4423004;32;20180;-86
2020/12/29 01:31:28;;;;;;;32.80;17.03;;;;;;;;;;4422177;32;20184;-87
2020/12/29 01:33:53;;;;;;;25.93;13.93;;;;;;;;;;4422317;32;20161;-86
2020/12/29 01:36:18;;;;;;;22.07;13.07;;;;;;;;;;4421908;32;20245;-85
2020/12/29 01:38:44;;;;;;;29.00;14.70;;;;;;;;;;4422456;32;20157;-85
2020/12/29 01:41:09;;;;;;;27.40;14.67;;;;;;;;;;4422054;32;20162;-87
2020/12/29 01:43:34;;;;;;;22.60;12.93;;;;;;;;;;4417778;32;20208;-84
2020/12/29 01:45:59;;;;;;;24.23;13.90;;;;;;;;;;4408229;32;20165;-85
2020/12/29 01:48:26;;;;;;;26.17;13.97;;;;;;;;;;4407720;32;20243;-85
2020/12/29 01:50:51;;;;;;;23.23;13.80;;;;;;;;;;4407838;32;20574;-86
2020/12/29 01:53:16;;;;;;;23.70;13.60;;;;;;;;;;4421004;32;20187;-87
2020/12/29 01:55:41;;;;;;;19.60;12.37;;;;;;;;;;4406607;32;20177;-85
2020/12/29 01:58:07;;;;;;;23.77;14.37;;;;;;;;;;4408941;32;20165;-85
2020/12/29 02:00:32;;;;;;;24.30;14.03;;;;;;;;;;4406873;32;20529;-85
2020/12/29 02:02:58;;;;;;;20.80;12.90;;;;;;;;;;4406779;32;20170;-86
2020/12/29 02:05:27;;;;;;;21.53;12.63;;;;;;;;;;4406496;32;20513;-86
2020/12/29 02:07:53;;;;;;;23.47;13.07;;;;;;;;;;4406516;32;20162;-86
2020/12/29 02:10:18;;;;;;;25.00;14.23;;;;;;;;;;4406915;32;20219;-86
2020/12/29 02:12:43;;;;;;;22.13;13.77;;;;;;;;;;4420881;32;20592;-86
2020/12/29 02:15:09;;;;;;;25.43;14.47;;;;;;;;;;4420419;32;20160;-86
2020/12/29 02:17:35;;;;;;;23.13;13.57;;;;;;;;;;4406427;32;20584;-86
2020/12/29 02:20:00;;;;;;;22.33;13.93;;;;;;;;;;4406370;32;20166;-86
2020/12/29 02:22:27;;;;;;;24.60;14.97;;;;;;;;;;4406413;32;20203;-87
2020/12/29 02:24:52;;;;;;;24.57;14.23;;;;;;;;;;4420114;32;20173;-86
2020/12/29 02:27:18;;;;;;;24.37;14.23;;;;;;;;;;4420433;32;20176;-86
2020/12/29 02:29:44;;;;;;;26.67;14.50;;;;;;;;;;4406605;32;20191;-86
2020/12/29 02:32:09;;;;;;;26.73;15.40;;;;;;;;;;4406308;32;20348;-86
2020/12/29 02:34:36;;;;;;;25.40;13.43;;;;;;;;;;4406965;32;20176;-86
2020/12/29 02:37:02;;;;;;;22.47;13.17;;;;;;;;;;4406533;32;20584;-87
2020/12/29 02:39:27;;;;;;;28.70;15.50;;;;;;;;;;4420954;32;20161;-87
2020/12/29 02:41:52;;;;;;;28.20;14.77;;;;;;;;;;4406344;32;20188;-86
2020/12/29 02:44:19;;;;;;;24.83;14.53;;;;;;;;;;4420075;32;20614;-86
2020/12/29 02:46:46;;;;;;;27.43;14.53;;;;;;;;;;4420150;32;20141;-86
2020/12/29 02:49:12;;;;;;;27.47;14.73;;;;;;;;;;4406397;32;20590;-87
2020/12/29 02:51:37;;;;;;;23.43;13.30;;;;;;;;;;4420070;32;20134;-86
2020/12/29 02:54:02;;;;;;;26.17;14.20;;;;;;;;;;4406381;32;20215;-87
2020/12/29 02:56:28;;;;;;;21.37;12.90;;;;;;;;;;4420311;32;20669;-86
2020/12/29 02:58:53;;;;;;;21.40;12.43;;;;;;;;;;4419904;32;20210;-87
2020/12/29 03:01:18;;;;;;;23.43;13.47;;;;;;;;;;4406084;32;20158;-86
2020/12/29 03:03:43;;;;;;;24.80;13.57;;;;;;;;;;4406487;32;20207;-87
2020/12/29 03:06:09;;;;;;;24.57;13.23;;;;;;;;;;4406097;32;20496;-86
2020/12/29 03:08:34;;;;;;;27.97;14.60;;;;;;;;;;4406558;32;20222;-86
2020/12/29 03:10:59;;;;;;;26.60;14.23;;;;;;;;;;4420390;32;20141;-86
2020/12/29 03:13:25;;;;;;;26.60;14.50;;;;;;;;;;4409210;32;20621;-86
2020/12/29 03:15:50;;;;;;;31.50;16.30;;;;;;;;;;4408857;32;20174;-86
2020/12/29 03:18:15;;;;;;;30.73;16.07;;;;;;;;;;4408772;32;20185;-86
2020/12/29 03:20:40;;;;;;;28.80;16.27;;;;;;;;;;4409003;32;20610;-86
2020/12/29 03:23:05;;;;;;;32.23;16.80;;;;;;;;;;4422653;32;20137;-86
2020/12/29 03:25:31;;;;;;;31.17;15.97;;;;;;;;;;4409619;32;20196;-86
2020/12/29 03:27:56;;;;;;;34.13;17.20;;;;;;;;;;4408718;32;20162;-86
2020/12/29 03:30:24;;;;;;;33.57;17.27;;;;;;;;;;4408660;32;20232;-86
2020/12/29 03:32:49;;;;;;;34.73;17.27;;;;;;;;;;4409004;32;20233;-86
2020/12/29 03:35:14;;;;;;;34.23;16.50;;;;;;;;;;4408706;32;20204;-87
2020/12/29 03:37:40;;;;;;;33.67;17.53;;;;;;;;;;4408465;32;20215;-86
2020/12/29 03:40:05;;;;;;;33.10;17.00;;;;;;;;;;4424306;32;20168;-87
2020/12/29 03:42:30;;;;;;;34.60;18.07;;;;;;;;;;4423161;32;20217;-87
2020/12/29 03:44:56;;;;;;;37.53;18.77;;;;;;;;;;4409492;32;20170;-86
2020/12/29 03:47:21;;;;;;;35.97;18.30;;;;;;;;;;4408350;32;20575;-86
2020/12/29 03:49:47;;;;;;;35.87;17.93;;;;;;;;;;4408379;32;20173;-87
2020/12/29 03:52:12;;;;;;;33.57;17.63;;;;;;;;;;4422177;32;20138;-87
2020/12/29 03:54:37;;;;;;;33.50;17.60;;;;;;;;;;4408269;32;20162;-86
2020/12/29 03:57:02;;;;;;;31.63;16.77;;;;;;;;;;4408792;32;20177;-87
2020/12/29 03:59:27;;;;;;;37.03;17.63;;;;;;;;;;4422381;32;20183;-87
2020/12/29 04:01:53;;;;;;;36.63;17.97;;;;;;;;;;4408160;32;20184;-87
2020/12/29 04:04:18;;;;;;;30.47;16.47;;;;;;;;;;4408663;32;20193;-86
2020/12/29 04:06:43;;;;;;;39.37;18.90;;;;;;;;;;4408156;32;20169;-86
2020/12/29 04:09:08;;;;;;;32.07;17.00;;;;;;;;;;4422092;32;20137;-86
2020/12/29 04:11:50;;;;;;;39.00;18.27;;;;;;;;;;4420664;32;20531;-86
2020/12/29 04:14:15;;;;;;;34.60;17.80;;;;;;;;;;4423767;32;20192;-86
2020/12/29 04:16:40;;;;;;;30.43;15.83;;;;;;;;;;4417310;32;20196;-86
2020/12/29 04:19:06;;;;;;;37.80;17.77;;;;;;;;;;4408747;32;20211;-87
2020/12/29 04:21:31;;;;;;;30.77;15.67;;;;;;;;;;4408935;32;20162;-86
2020/12/29 04:23:56;;;;;;;34.30;17.13;;;;;;;;;;4422494;32;20478;-86
2020/12/29 04:26:24;;;;;;;38.00;17.77;;;;;;;;;;4423256;32;20169;-86
2020/12/29 04:28:49;;;;;;;33.70;16.60;;;;;;;;;;4423243;32;20157;-86
2020/12/29 04:31:15;;;;;;;31.17;16.17;;;;;;;;;;4422913;32;20247;-86
2020/12/29 04:33:41;;;;;;;34.47;16.83;;;;;;;;;;4436914;32;20137;-85
2020/12/29 04:36:06;;;;;;;31.60;17.27;;;;;;;;;;4422964;32;20177;-86
2020/12/29 04:38:31;;;;;;;31.90;17.00;;;;;;;;;;4423048;32;20199;-86
2020/12/29 04:40:57;;;;;;;34.63;16.17;;;;;;;;;;4424740;32;20222;-85
2020/12/29 04:43:22;;;;;;;31.17;16.17;;;;;;;;;;4424110;32;20244;-86
2020/12/29 04:45:49;;;;;;;34.30;17.20;;;;;;;;;;4430219;32;20219;-86
2020/12/29 04:48:14;;;;;;;31.13;16.67;;;;;;;;;;4408238;32;20223;-86
2020/12/29 04:50:40;;;;;;;30.57;16.07;;;;;;;;;;4407528;32;20220;-85
2020/12/29 04:53:07;;;;;;;35.37;17.67;;;;;;;;;;4407595;32;20197;-86
2020/12/29 04:55:36;;;;;;;32.43;16.07;;;;;;;;;;4407738;32;20166;-87
2020/12/29 04:58:02;;;;;;;29.37;15.13;;;;;;;;;;4407659;32;20230;-87
2020/12/29 05:00:28;;;;;;;32.77;16.40;;;;;;;;;;4421640;32;20142;-86
2020/12/29 05:02:53;;;;;;;30.83;14.83;;;;;;;;;;4432024;32;20239;-86
2020/12/29 05:05:19;;;;;;;29.97;15.13;;;;;;;;;;4436298;32;20168;-87
2020/12/29 05:07:46;;;;;;;28.63;14.60;;;;;;;;;;4422434;32;20162;-86
2020/12/29 05:10:11;;;;;;;27.13;14.00;;;;;;;;;;4422641;32;20161;-86
2020/12/29 05:12:49;;;;;;;29.37;14.97;;;;;;;;;;4423330;32;20162;-86
2020/12/29 05:15:15;;;;;;;30.27;14.87;;;;;;;;;;4422570;32;20222;-86
2020/12/29 05:17:43;;;;;;;28.47;14.67;;;;;;;;;;4422474;32;20162;-85
2020/12/29 05:20:09;;;;;;;32.77;15.97;;;;;;;;;;4423160;32;20180;-85
2020/12/29 05:22:35;;;;;;;27.47;14.13;;;;;;;;;;4420173;32;20477;-86
2020/12/29 05:25:02;;;;;;;30.33;14.40;;;;;;;;;;4407275;32;20165;-86
2020/12/29 05:27:29;;;;;;;30.33;15.97;;;;;;;;;;4422167;32;20190;-86
2020/12/29 05:29:55;;;;;;;27.90;14.03;;;;;;;;;;4407490;32;20215;-85
2020/12/29 05:32:23;;;;;;;31.47;16.30;;;;;;;;;;4421134;32;20145;-85
2020/12/29 05:34:48;;;;;;;27.27;14.80;;;;;;;;;;4407001;32;20169;-85
2020/12/29 05:37:14;;;;;;;30.70;16.17;;;;;;;;;;4407100;32;20507;-85
2020/12/29 05:39:39;;;;;;;27.83;14.77;;;;;;;;;;4420962;32;20206;-85
2020/12/29 05:42:04;;;;;;;31.00;16.57;;;;;;;;;;4421214;32;20425;-85
2020/12/29 05:44:30;;;;;;;29.97;16.23;;;;;;;;;;4407082;32;20166;-85
2020/12/29 05:46:57;;;;;;;32.63;17.00;;;;;;;;;;4406845;32;20219;-85
2020/12/29 05:49:23;;;;;;;32.43;16.77;;;;;;;;;;4420865;32;20133;-85
2020/12/29 05:51:49;;;;;;;29.07;15.07;;;;;;;;;;4406811;32;20161;-85
2020/12/29 05:54:14;;;;;;;33.80;16.87;;;;;;;;;;4407733;32;20571;-85
2020/12/29 05:56:40;;;;;;;31.80;16.13;;;;;;;;;;4416394;32;20562;-85
2020/12/29 05:59:05;;;;;;;33.80;16.63;;;;;;;;;;4409833;32;20204;-85
2020/12/29 06:01:34;;;;;;;35.63;17.37;;;;;;;;;;4407643;32;20587;-85
2020/12/29 06:04:01;;;;;;;35.03;17.00;;;;;;;;;;4420406;32;20162;-85
2020/12/29 06:06:27;;;;;;;28.90;16.03;;;;;;;;;;4420746;32;20145;-86
2020/12/29 06:08:54;;;;;;;30.37;16.57;;;;;;;;;;4406457;32;20244;-85
2020/12/29 06:11:21;;;;;;;32.40;17.10;;;;;;;;;;4406480;32;20169;-86
2020/12/29 06:13:47;;;;;;;39.03;17.97;;;;;;;;;;4407265;32;20174;-86
2020/12/29 06:16:16;;;;;;;30.60;16.37;;;;;;;;;;4406512;32;20586;-86
2020/12/29 06:18:44;;;;;;;35.77;17.10;;;;;;;;;;4406696;32;20161;-86
2020/12/29 06:21:10;;;;;;;38.00;18.53;;;;;;;;;;4420399;32;20190;-86
2020/12/29 06:23:43;;;;;;;34.20;16.70;;;;;;;;;;4406504;32;20209;-86
2020/12/29 06:26:09;;;;;;;37.87;18.83;;;;;;;;;;4406095;32;20200;-86
2020/12/29 06:28:46;;;;;;;35.13;16.67;;;;;;;;;;4407850;32;20177;-86
2020/12/29 06:31:13;;;;;;;32.77;16.90;;;;;;;;;;4420358;32;20145;-86
2020/12/29 06:33:38;;;;;;;39.33;18.03;;;;;;;;;;4406390;32;20517;-86
2020/12/29 06:36:03;;;;;;;42.53;19.57;;;;;;;;;;4406647;32;20181;-86
2020/12/29 06:38:29;;;;;;;40.63;19.03;;;;;;;;;;4406270;32;20180;-87
2020/12/29 06:40:55;;;;;;;40.53;19.53;;;;;;;;;;4420140;32;20198;-86
2020/12/29 06:43:20;;;;;;;44.17;19.73;;;;;;;;;;4406193;32;20192;-85
2020/12/29 06:45:48;;;;;;;41.90;19.73;;;;;;;;;;4405938;32;20161;-86
2020/12/29 06:48:20;;;;;;;48.43;21.63;;;;;;;;;;4409280;32;20200;-86
2020/12/29 06:50:46;;;;;;;43.47;20.50;;;;;;;;;;4417447;32;20272;-85
2020/12/29 06:53:16;;;;;;;40.17;19.23;;;;;;;;;;4424617;32;20158;-86
2020/12/29 06:55:45;;;;;;;38.37;19.00;;;;;;;;;;4425266;32;20217;-86
2020/12/29 06:58:15;;;;;;;40.67;19.77;;;;;;;;;;4438490;32;20172;-86
2020/12/29 07:00:40;;;;;;;38.07;18.40;;;;;;;;;;4439168;32;20137;-86
2020/12/29 07:03:06;;;;;;;38.57;19.30;;;;;;;;;;4424658;32;20183;-85
2020/12/29 07:05:38;;;;;;;44.17;20.67;;;;;;;;;;4438197;32;20141;-85
2020/12/29 07:08:06;;;;;;;47.40;20.33;;;;;;;;;;4424353;32;20180;-85
2020/12/29 07:10:32;;;;;;;44.90;20.30;;;;;;;;;;4438622;32;20191;-84
2020/12/29 07:13:02;;;;;;;47.27;21.07;;;;;;;;;;4424016;32;20169;-85
2020/12/29 07:15:28;;;;;;;43.97;19.37;;;;;;;;;;4422230;32;20162;-81
2020/12/29 07:18:00;;;;;;;41.63;20.67;;;;;;;;;;4422459;32;20203;-84
2020/12/29 07:20:33;;;;;;;41.77;19.90;;;;;;;;;;4420023;32;20225;-84
2020/12/29 07:23:05;;;;;;;42.77;19.27;;;;;;;;;;4423119;32;20165;-83
2020/12/29 07:25:31;;;;;;;41.20;20.37;;;;;;;;;;4423413;32;20520;-84
2020/12/29 07:28:01;;;;;;;53.83;23.60;;;;;;;;;;4419108;32;20157;-83
2020/12/29 07:30:27;;;;;;;48.70;20.27;;;;;;;;;;4423495;32;20204;-84
2020/12/29 07:32:55;;;;;;;47.50;20.83;;;;;;;;;;4423650;32;20157;-86
2020/12/29 07:35:21;;;;;;;51.93;22.23;;;;;;;;;;4423745;32;20188;-84
2020/12/29 07:37:49;;;;;;;45.00;20.47;;;;;;;;;;4423842;32;20181;-85
2020/12/29 07:40:15;;;;;;;46.37;20.70;;;;;;;;;;4423674;32;20583;-85
2020/12/29 07:42:40;;;;;;;44.53;20.37;;;;;;;;;;4423912;32;20177;-84
2020/12/29 07:45:05;;;;;;;47.83;21.37;;;;;;;;;;4437393;32;20199;-85
2020/12/29 07:47:30;;;;;;;53.10;23.27;;;;;;;;;;4423178;32;20153;-85
2020/12/29 07:49:58;;;;;;;48.70;22.13;;;;;;;;;;4423557;32;20165;-83
2020/12/29 07:52:24;;;;;;;49.20;22.27;;;;;;;;;;4410868;32;20211;-84
2020/12/29 07:55:09;;;;;;;46.37;21.43;;;;;;;;;;4423278;32;20158;-85
2020/12/29 07:57:35;;;;;;;49.63;21.90;;;;;;;;;;4419824;32;20667;-83
2020/12/29 08:00:07;;;;;;;49.37;22.13;;;;;;;;;;4420157;32;20166;-83
2020/12/29 08:02:33;;;;;;;50.17;22.60;;;;;;;;;;4419149;32;20181;-84
2020/12/29 08:05:01;;;;;;;48.07;21.97;;;;;;;;;;4417253;32;20440;-83
2020/12/29 08:07:27;;;;;;;52.67;22.97;;;;;;;;;;4419771;32;20177;-84
2020/12/29 08:09:52;;;;;;;48.43;22.47;;;;;;;;;;4420592;32;20181;-84
2020/12/29 08:12:17;;;;;;;52.40;23.33;;;;;;;;;;4420456;32;20474;-85
2020/12/29 08:14:43;;;;;;;48.37;22.07;;;;;;;;;;4420195;32;20215;-85
2020/12/29 08:17:08;;;;;;;48.93;21.87;;;;;;;;;;4405544;32;20213;-84
2020/12/29 08:19:33;;;;;;;43.53;20.70;;;;;;;;;;4405655;32;20550;-83
2020/12/29 08:22:03;;;;;;;44.00;20.83;;;;;;;;;;4405533;32;20174;-84
2020/12/29 08:24:28;;;;;;;45.67;20.33;;;;;;;;;;4406342;32;20229;-83
2020/12/29 08:26:57;;;;;;;41.90;19.90;;;;;;;;;;4405105;32;20166;-82
2020/12/29 08:29:23;;;;;;;42.67;20.23;;;;;;;;;;4406357;32;20146;-85
2020/12/29 08:32:02;;;;;;;43.53;20.40;;;;;;;;;;4404887;32;20162;-85
2020/12/29 08:34:27;;;;;;;44.40;20.30;;;;;;;;;;4405401;32;20232;-85
2020/12/29 08:36:57;;;;;;;41.40;20.73;;;;;;;;;;4405019;32;20223;-85
2020/12/29 08:39:28;;;;;;;42.00;20.47;;;;;;;;;;4405222;32;20216;-83
2020/12/29 08:41:56;;;;;;;36.50;18.50;;;;;;;;;;4406065;32;20162;-82
2020/12/29 08:44:21;;;;;;;37.83;18.33;;;;;;;;;;4405253;32;20208;-83
2020/12/29 08:46:47;;;;;;;34.77;18.20;;;;;;;;;;4413368;32;20651;-81
2020/12/29 08:49:12;;;;;;;35.33;18.53;;;;;;;;;;4419780;32;20498;-83
2020/12/29 08:51:38;;;;;;;36.33;19.20;;;;;;;;;;4420212;32;20154;-82
2020/12/29 08:54:07;;;;;;;38.50;20.07;;;;;;;;;;4420311;32;20192;-79
2020/12/29 08:56:32;;;;;;;42.67;20.63;;;;;;;;;;4420992;32;20169;-82
2020/12/29 08:59:06;;;;;;;36.50;18.60;;;;;;;;;;4419532;32;20174;-83
2020/12/29 09:01:33;;;;;;;34.70;17.97;;;;;;;;;;4420536;32;20241;-83
2020/12/29 09:04:17;;;;;;;35.60;18.27;;;;;;;;;;4412557;32;20166;-83
2020/12/29 09:06:43;;;;;;;37.03;17.03;;;;;;;;;;4404075;32;20222;-83
2020/12/29 09:09:08;;;;;;;35.07;19.07;;;;;;;;;;4413850;32;20166;-83
2020/12/29 09:11:36;;;;;;;28.87;15.97;;;;;;;;;;4419694;32;20159;-83
2020/12/29 09:14:06;;;;;;;29.47;15.50;;;;;;;;;;4419247;32;20157;-82
2020/12/29 09:16:35;;;;;;;27.87;15.07;;;;;;;;;;4419955;32;20643;-83
2020/12/29 09:19:12;;;;;;;28.43;16.00;;;;;;;;;;4419505;32;20157;-84
2020/12/29 09:21:50;;;;;;;27.60;15.63;;;;;;;;;;4419700;32;20180;-83
2020/12/29 09:24:19;;;;;;;23.57;13.57;;;;;;;;;;4419941;32;20261;-82
2020/12/29 09:26:48;;;;;;;26.47;14.43;;;;;;;;;;4419342;32;20683;-83
2020/12/29 09:29:18;;;;;;;22.57;13.83;;;;;;;;;;4419226;32;20154;-82
2020/12/29 09:31:51;;;;;;;21.67;12.97;;;;;;;;;;4419860;32;20195;-83
2020/12/29 09:34:16;;;;;;;21.33;12.23;;;;;;;;;;4419707;32;20246;-82
2020/12/29 09:36:41;;;;;;;23.33;12.73;;;;;;;;;;4419176;32;20178;-83
2020/12/29 09:39:07;;;;;;;23.67;13.67;;;;;;;;;;4419228;32;20660;-82
2020/12/29 09:41:32;;;;;;;26.33;14.63;;;;;;;;;;4419133;32;20280;-82
2020/12/29 09:43:58;;;;;;;27.73;15.53;;;;;;;;;;4419039;32;20198;-82
2020/12/29 09:46:33;;;;;;;26.40;15.80;;;;;;;;;;4419234;32;20166;-82
2020/12/29 09:48:58;;;;;;;29.33;16.00;;;;;;;;;;4419693;32;20497;-82
2020/12/29 09:51:24;;;;;;;33.50;18.37;;;;;;;;;;4418522;32;20579;-82
2020/12/29 09:53:49;;;;;;;36.33;21.57;;;;;;;;;;4417804;32;20180;-83
2020/12/29 09:56:21;;;;;;;39.60;22.93;;;;;;;;;;4419200;32;20188;-84
2020/12/29 09:58:46;;;;;;;37.63;23.60;;;;;;;;;;4418598;32;20209;-83
2020/12/29 10:01:13;;;;;;;35.87;21.73;;;;;;;;;;4406263;32;20188;-83
2020/12/29 10:03:39;;;;;;;36.70;19.33;;;;;;;;;;4418857;32;20162;-82
2020/12/29 10:06:07;;;;;;;33.60;19.97;;;;;;;;;;4418503;32;20188;-83
2020/12/29 10:08:33;;;;;;;32.33;18.90;;;;;;;;;;4418199;32;20207;-83
2020/12/29 10:10:58;;;;;;;34.83;19.37;;;;;;;;;;4418775;32;20602;-84
2020/12/29 10:13:24;;;;;;;34.03;19.53;;;;;;;;;;4419058;32;20218;-83
2020/12/29 10:15:49;;;;;;;32.17;20.43;;;;;;;;;;4418744;32;20209;-83
2020/12/29 10:18:14;;;;;;;38.47;22.47;;;;;;;;;;4418899;32;20162;-83
2020/12/29 10:20:40;;;;;;;36.77;24.13;;;;;;;;;;4420007;32;20194;-84
2020/12/29 10:23:05;;;;;;;40.60;22.87;;;;;;;;;;4418899;32;20224;-82
2020/12/29 10:25:32;;;;;;;41.83;24.23;;;;;;;;;;4418412;32;20512;-83
2020/12/29 10:27:57;;;;;;;39.23;23.53;;;;;;;;;;4418789;32;20165;-84
2020/12/29 10:30:22;;;;;;;36.73;21.93;;;;;;;;;;4418865;32;20180;-84
2020/12/29 10:32:48;;;;;;;37.47;22.90;;;;;;;;;;4418911;32;20176;-85
2020/12/29 10:35:16;;;;;;;40.10;23.07;;;;;;;;;;4418246;32;20157;-83
2020/12/29 10:37:41;;;;;;;35.47;21.63;;;;;;;;;;4418603;32;20157;-84
2020/12/29 10:40:11;;;;;;;36.17;23.60;;;;;;;;;;4418662;32;20210;-84
2020/12/29 10:42:39;;;;;;;37.03;23.23;;;;;;;;;;4418847;32;20153;-84
2020/12/29 10:45:10;;;;;;;40.40;22.43;;;;;;;;;;4418938;32;20160;-84
2020/12/29 10:47:46;;;;;;;36.43;21.27;;;;;;;;;;4419161;32;20158;-84
2020/12/29 10:50:12;;;;;;;31.77;20.43;;;;;;;;;;4418150;32;20499;-85
2020/12/29 10:52:37;;;;;;;27.47;17.87;;;;;;;;;;4418435;32;20188;-85
2020/12/29 10:55:03;;;;;;;30.10;17.67;;;;;;;;;;4418638;32;20212;-85
2020/12/29 10:57:28;;;;;;;25.03;16.73;;;;;;;;;;4420741;32;20234;-85
2020/12/29 11:00:04;;;;;;;26.87;16.97;;;;;;;;;;4435234;32;20150;-86
2020/12/29 11:02:46;;;;;;;23.00;14.90;;;;;;;;;;4421738;32;20183;-86
2020/12/29 11:05:22;;;;;;;22.90;14.30;;;;;;;;;;4421191;32;20162;-85
2020/12/29 11:08:02;;;;;;;20.63;14.00;;;;;;;;;;4421504;32;20550;-85
2020/12/29 11:10:39;;;;;;;19.87;12.93;;;;;;;;;;4421191;32;20169;-85
2020/12/29 11:13:09;;;;;;;16.80;11.13;;;;;;;;;;4421493;32;20650;-84
2020/12/29 11:15:35;;;;;;;18.23;11.13;;;;;;;;;;4420070;32;20161;-84
2020/12/29 11:18:11;;;;;;;16.53;10.30;;;;;;;;;;4421273;32;20268;-84
2020/12/29 11:20:54;;;;;;;15.63;10.20;;;;;;;;;;4420996;32;20216;-84
2020/12/29 11:23:25;;;;;;;13.43;8.90;;;;;;;;;;4421024;32;20184;-83
2020/12/29 11:25:53;;;;;;;13.03;8.20;;;;;;;;;;4420884;32;20165;-84
2020/12/29 11:28:18;;;;;;;14.00;9.00;;;;;;;;;;4422641;32;20177;-84
2020/12/29 11:30:55;;;;;;;11.07;7.40;;;;;;;;;;4424988;32;20201;-84
2020/12/29 11:33:24;;;;;;;12.97;7.40;;;;;;;;;;4425001;32;20157;-84
2020/12/29 11:35:51;;;;;;;9.15;6.22;;;;;;;;;;4425058;32;20169;-84
2020/12/29 11:38:23;;;;;;;7.68;5.75;;;;;;;;;;4423308;32;20212;-84
2020/12/29 11:40:58;;;;;;;9.15;6.28;;;;;;;;;;4411731;32;20230;-83
2020/12/29 11:43:23;;;;;;;9.25;6.57;;;;;;;;;;4423603;32;20152;-83
2020/12/29 11:45:51;;;;;;;8.10;5.87;;;;;;;;;;4423284;32;20199;-84
2020/12/29 11:48:16;;;;;;;9.30;6.62;;;;;;;;;;4423399;32;20196;-83
2020/12/29 11:50:42;;;;;;;10.90;6.87;;;;;;;;;;4423489;32;20593;-83
2020/12/29 11:53:18;;;;;;;10.10;6.57;;;;;;;;;;4423809;32;20471;-84
2020/12/29 11:56:08;;;;;;;10.15;6.70;;;;;;;;;;4434215;32;20225;-84
2020/12/29 11:58:38;;;;;;;11.73;6.95;;;;;;;;;;4423505;32;20195;-84
2020/12/29 12:01:12;;;;;;;10.33;6.30;;;;;;;;;;4423348;32;20150;-85
2020/12/29 12:03:40;;;;;;;9.60;7.00;;;;;;;;;;4424123;32;20205;-85
2020/12/29 12:06:17;;;;;;;10.97;6.90;;;;;;;;;;4423651;32;20541;-84
2020/12/29 12:08:50;;;;;;;12.53;7.43;;;;;;;;;;4423843;32;20157;-86
2020/12/29 12:11:28;;;;;;;13.20;7.70;;;;;;;;;;4423158;32;20162;-86
2020/12/29 12:13:57;;;;;;;14.70;8.20;;;;;;;;;;4428927;32;20153;-83
2020/12/29 12:16:38;;;;;;;11.77;7.43;;;;;;;;;;4431536;32;20192;-85
2020/12/29 12:19:07;;;;;;;12.17;8.37;;;;;;;;;;4423297;32;20218;-84
2020/12/29 12:21:38;;;;;;;14.97;8.43;;;;;;;;;;4422793;32;20183;-84
2020/12/29 12:24:03;;;;;;;16.47;8.90;;;;;;;;;;4423117;32;20228;-84
2020/12/29 12:26:31;;;;;;;13.97;8.37;;;;;;;;;;4422707;32;20619;-84
2020/12/29 12:28:57;;;;;;;14.70;9.23;;;;;;;;;;4422803;32;20177;-84
2020/12/29 12:31:22;;;;;;;15.60;9.37;;;;;;;;;;4422798;32;20165;-84
2020/12/29 12:33:56;;;;;;;14.63;8.87;;;;;;;;;;4423492;32;20589;-84
2020/12/29 12:36:26;;;;;;;17.73;10.67;;;;;;;;;;4423115;32;20156;-84
2020/12/29 12:38:57;;;;;;;15.57;9.30;;;;;;;;;;4423062;32;20166;-87
2020/12/29 12:41:30;;;;;;;14.90;9.00;;;;;;;;;;4423635;32;20184;-86
2020/12/29 12:44:02;;;;;;;14.47;9.07;;;;;;;;;;4421284;32;20242;-83
2020/12/29 12:46:44;;;;;;;14.67;9.47;;;;;;;;;;4422533;32;20187;-84
2020/12/29 12:49:21;;;;;;;16.02;9.05;;;;;;;;;;4421992;32;20231;-84
2020/12/29 12:52:09;;;;;;;16.20;8.87;;;;;;;;;;4437629;32;20159;-85
2020/12/29 12:54:37;;;;;;;11.87;8.10;;;;;;;;;;4422340;32;20184;-84
2020/12/29 12:57:08;;;;;;;13.60;8.97;;;;;;;;;;4422395;32;20153;-84
2020/12/29 12:59:42;;;;;;;15.13;9.10;;;;;;;;;;4419525;32;20257;-84
2020/12/29 13:02:15;;;;;;;13.33;8.33;;;;;;;;;;4420653;32;20154;-84
2020/12/29 13:05:02;;;;;;;15.32;10.60;;;;;;;;;;4421413;32;20145;-84
2020/12/29 13:07:32;;;;;;;15.33;9.07;;;;;;;;;;4420178;32;20593;-84
2020/12/29 13:10:03;;;;;;;13.50;8.03;;;;;;;;;;4414573;32;20181;-84
2020/12/29 13:12:38;;;;;;;13.70;8.60;;;;;;;;;;4404514;32;20173;-85
2020/12/29 13:15:17;;;;;;;12.73;8.40;;;;;;;;;;4404582;32;20184;-85
2020/12/29 13:17:51;;;;;;;13.57;8.50;;;;;;;;;;4404712;32;20490;-85
2020/12/29 13:20:25;;;;;;;15.00;9.07;;;;;;;;;;4405110;32;20292;-85
2020/12/29 13:23:08;;;;;;;12.17;7.73;;;;;;;;;;4404703;32;20198;-84
2020/12/29 13:25:48;;;;;;;10.88;6.97;;;;;;;;;;4404269;32;20192;-85
2020/12/29 13:28:28;;;;;;;9.37;4.87;;;;;;;;;;4409205;32;20180;-84
2020/12/29 13:30:56;;;;;;;6.77;4.07;;;;;;;;;;4416899;32;20158;-83
2020/12/29 13:33:26;;;;;;;6.40;3.90;;;;;;;;;;4418489;32;20661;-84
2020/12/29 13:35:56;;;;;;;6.83;4.10;;;;;;;;;;4418373;32;20236;-84
2020/12/29 13:38:47;;;;;;;6.77;4.10;;;;;;;;;;4419596;32;20294;-84
2020/12/29 13:41:45;;;;;;;7.10;4.53;;;;;;;;;;4419418;32;20202;-83
2020/12/29 13:44:22;;;;;;;7.63;4.83;;;;;;;;;;4403879;32;20197;-85
2020/12/29 13:47:09;;;;;;;8.43;4.77;;;;;;;;;;4411876;32;20184;-84
2020/12/29 13:49:37;;;;;;;10.33;5.03;;;;;;;;;;4418349;32;20161;-84
2020/12/29 13:52:20;;;;;;;9.60;4.30;;;;;;;;;;4418610;32;20157;-84
2020/12/29 13:55:02;;;;;;;7.87;4.37;;;;;;;;;;4418627;32;20613;-85
2020/12/29 13:57:31;;;;;;;9.73;4.63;;;;;;;;;;4418206;32;20281;-84
2020/12/29 14:00:17;;;;;;;7.57;4.63;;;;;;;;;;4417674;32;20208;-84
2020/12/29 14:02:53;;;;;;;10.83;5.30;;;;;;;;;;4416706;32;20266;-84
2020/12/29 14:05:30;;;;;;;9.63;4.90;;;;;;;;;;4418569;32;20185;-84
2020/12/29 14:08:01;;;;;;;10.37;5.10;;;;;;;;;;4418423;32;20153;-85
2020/12/29 14:10:40;;;;;;;10.63;5.60;;;;;;;;;;4419720;32;20231;-85
2020/12/29 14:13:11;;;;;;;10.80;5.50;;;;;;;;;;4407500;32;20239;-85
2020/12/29 14:15:37;;;;;;;8.93;4.60;;;;;;;;;;4419255;32;20198;-84
2020/12/29 14:18:10;;;;;;;9.17;4.83;;;;;;;;;;4419430;32;20180;-85
2020/12/29 14:20:44;;;;;;;9.33;4.97;;;;;;;;;;4419790;32;20184;-85
2020/12/29 14:23:28;;;;;;;5.90;3.67;;;;;;;;;;4419446;32;20582;-85
2020/12/29 14:26:08;;;;;;;7.13;4.00;;;;;;;;;;4419418;32;20157;-87
2020/12/29 14:28:39;;;;;;;7.97;4.27;;;;;;;;;;4419818;32;20195;-85